Time;durP1;ratioP1;P1;durP2;ratioP2;P2;SDS_P1;SDS_P2;PMS_P1;PMS_P2;Temp;Humidity;BMP_temperature;BMP_pressure;BME280_temperature;BME280_humidity;BME280_pressure;Samples;Min_cycle;Max_cycle;Signal;HPM_P1;HPM_P2
2020/12/01 00:00:22;;;;;;;7.03;6.32;;;9.20;99.90;;;;;;5093029;28;20225;-79
2020/12/01 00:02:49;;;;;;;7.30;5.57;;;9.10;99.90;;;;;;5092900;28;20656;-79
2020/12/01 00:05:17;;;;;;;9.82;7.63;;;9.10;99.90;;;;;;5092893;28;20220;-79
2020/12/01 00:07:44;;;;;;;7.25;6.43;;;9.20;99.90;;;;;;5093059;28;20197;-79
2020/12/01 00:10:12;;;;;;;11.10;7.43;;;9.20;99.90;;;;;;5093017;28;20194;-79
2020/12/01 00:12:40;;;;;;;7.20;6.50;;;9.10;99.90;;;;;;5093146;28;20664;-79
2020/12/01 00:15:06;;;;;;;9.07;6.63;;;9.20;99.90;;;;;;5092832;28;20204;-79
2020/12/01 00:17:33;;;;;;;9.00;6.45;;;9.20;99.90;;;;;;5092646;28;20231;-79
2020/12/01 00:19:59;;;;;;;9.80;7.03;;;9.10;99.90;;;;;;5092521;28;20213;-79
2020/12/01 00:22:25;;;;;;;9.10;7.35;;;9.20;99.90;;;;;;5096743;28;20189;-79
2020/12/01 00:24:51;;;;;;;9.68;6.30;;;9.20;99.90;;;;;;5096443;28;20213;-79
2020/12/01 00:27:19;;;;;;;7.70;6.53;;;9.20;99.90;;;;;;5096573;28;20197;-80
2020/12/01 00:29:45;;;;;;;6.93;6.22;;;9.00;99.90;;;;;;5096665;28;20212;-79
2020/12/01 00:32:11;;;;;;;8.43;6.45;;;9.00;99.90;;;;;;5096369;28;20195;-78
2020/12/01 00:34:37;;;;;;;7.88;6.63;;;9.10;99.90;;;;;;5096163;28;20189;-79
2020/12/01 00:37:04;;;;;;;7.00;5.57;;;9.10;99.90;;;;;;5096113;28;20219;-80
2020/12/01 00:39:30;;;;;;;5.57;5.05;;;9.10;99.90;;;;;;5096263;28;20189;-79
2020/12/01 00:41:57;;;;;;;5.70;5.10;;;9.20;99.90;;;;;;5096278;28;20652;-79
2020/12/01 00:44:24;;;;;;;6.03;5.43;;;9.20;99.90;;;;;;5096118;28;20194;-79
2020/12/01 00:46:50;;;;;;;5.28;4.78;;;9.20;99.90;;;;;;5096072;28;20205;-79
2020/12/01 00:49:17;;;;;;;5.40;4.50;;;9.20;99.90;;;;;;5096021;28;20193;-79
2020/12/01 00:51:44;;;;;;;5.60;4.80;;;9.20;99.90;;;;;;5096081;28;20209;-81
2020/12/01 00:54:10;;;;;;;5.05;4.40;;;9.20;99.90;;;;;;5095983;28;20206;-79
2020/12/01 00:56:36;;;;;;;7.93;5.65;;;9.20;99.90;;;;;;5095704;28;20220;-79
2020/12/01 00:59:02;;;;;;;4.55;4.15;;;9.20;99.90;;;;;;5095869;28;20204;-79
2020/12/01 01:01:30;;;;;;;5.60;4.53;;;9.30;99.90;;;;;;5095966;28;20221;-79
2020/12/01 01:03:57;;;;;;;4.90;3.85;;;9.30;99.90;;;;;;5095886;28;20580;-79
2020/12/01 01:06:24;;;;;;;7.13;4.43;;;9.10;99.90;;;;;;5095656;28;20197;-79
2020/12/01 01:08:50;;;;;;;4.43;4.03;;;9.20;99.90;;;;;;5095581;28;20190;-79
2020/12/01 01:11:16;;;;;;;4.90;3.88;;;9.10;99.90;;;;;;5095576;28;20204;-79
2020/12/01 01:13:42;;;;;;;5.32;4.35;;;9.10;99.90;;;;;;5095725;28;20190;-79
2020/12/01 01:16:09;;;;;;;4.72;4.28;;;9.10;99.90;;;;;;5095341;28;20193;-79
2020/12/01 01:18:36;;;;;;;4.13;3.72;;;9.10;99.90;;;;;;5095442;28;20197;-79
2020/12/01 01:21:03;;;;;;;7.05;5.35;;;9.20;99.90;;;;;;5095294;28;20586;-79
2020/12/01 01:23:29;;;;;;;4.55;4.15;;;9.10;99.90;;;;;;5095510;28;20193;-80
2020/12/01 01:25:55;;;;;;;4.88;4.10;;;9.20;99.90;;;;;;5095173;28;20213;-78
2020/12/01 01:28:21;;;;;;;5.03;4.53;;;9.30;99.90;;;;;;5095558;28;20196;-79
2020/12/01 01:30:48;;;;;;;5.55;5.05;;;9.20;99.90;;;;;;5095210;28;20204;-78
2020/12/01 01:33:14;;;;;;;6.28;5.68;;;9.20;99.90;;;;;;5095099;28;20663;-79
2020/12/01 01:35:41;;;;;;;6.10;5.50;;;9.20;99.90;;;;;;5095062;28;20194;-79
2020/12/01 01:38:09;;;;;;;5.50;5.05;;;9.20;99.90;;;;;;5094991;28;20205;-79
2020/12/01 01:40:36;;;;;;;5.97;5.25;;;9.30;99.90;;;;;;5095093;28;20226;-79
2020/12/01 01:43:03;;;;;;;7.68;6.00;;;9.30;99.90;;;;;;5095099;28;20204;-79
2020/12/01 01:45:39;;;;;;;7.03;5.88;;;9.40;99.90;;;;;;5094901;28;20197;-80
2020/12/01 01:48:14;;;;;;;7.63;5.72;;;9.40;99.90;;;;;;5094927;28;20193;-79
2020/12/01 01:50:44;;;;;;;9.80;7.32;;;9.40;99.90;;;;;;5094926;28;20558;-79
2020/12/01 01:53:11;;;;;;;7.10;6.43;;;9.50;99.90;;;;;;5094808;28;20200;-79
2020/12/01 01:55:41;;;;;;;7.65;6.88;;;9.50;99.90;;;;;;5094460;28;20217;-79
2020/12/01 01:58:08;;;;;;;8.25;7.43;;;9.60;99.90;;;;;;5095040;28;20194;-79
2020/12/01 02:00:52;;;;;;;8.13;7.32;;;9.50;99.90;;;;;;5094620;28;20219;-79
2020/12/01 02:03:34;;;;;;;11.88;8.10;;;9.60;99.90;;;;;;5094795;28;20196;-79
2020/12/01 02:06:02;;;;;;;7.32;6.57;;;9.60;99.90;;;;;;5094690;28;20193;-79
2020/12/01 02:08:29;;;;;;;9.15;8.00;;;9.60;99.90;;;;;;5094643;28;20193;-78
2020/12/01 02:10:58;;;;;;;9.68;8.40;;;9.60;99.90;;;;;;5094616;28;20280;-79
2020/12/01 02:13:35;;;;;;;9.40;7.90;;;9.60;99.90;;;;;;5094626;28;20209;-79
2020/12/01 02:16:01;;;;;;;12.45;8.85;;;9.60;99.90;;;;;;5094539;28;20276;-79
2020/12/01 02:18:30;;;;;;;11.60;9.15;;;9.50;99.90;;;;;;5094103;28;20252;-79
2020/12/01 02:20:56;;;;;;;10.25;8.57;;;9.30;99.90;;;;;;5094218;28;20225;-78
2020/12/01 02:23:24;;;;;;;13.07;8.93;;;9.40;99.90;;;;;;5094435;28;20282;-79
2020/12/01 02:25:50;;;;;;;11.63;9.43;;;9.30;99.90;;;;;;5094098;28;20232;-80
2020/12/01 02:28:17;;;;;;;9.25;8.20;;;9.40;99.90;;;;;;5094161;28;20196;-79
2020/12/01 02:30:43;;;;;;;12.45;8.38;;;9.40;99.90;;;;;;5094109;28;20204;-79
2020/12/01 02:33:10;;;;;;;10.23;7.97;;;9.50;99.90;;;;;;5094375;28;20656;-79
2020/12/01 02:35:36;;;;;;;11.63;9.63;;;9.50;99.90;;;;;;5094103;28;20552;-79
2020/12/01 02:38:02;;;;;;;9.25;7.90;;;9.50;99.90;;;;;;5094008;28;20193;-79
2020/12/01 02:40:29;;;;;;;9.82;8.55;;;9.50;99.90;;;;;;5093824;28;20255;-79
2020/12/01 02:42:55;;;;;;;8.52;7.38;;;9.60;99.90;;;;;;5093435;28;20205;-79
2020/12/01 02:45:22;;;;;;;9.60;7.75;;;9.60;99.90;;;;;;5093796;28;20572;-79
2020/12/01 02:47:48;;;;;;;8.27;7.35;;;9.60;99.90;;;;;;5093903;28;20193;-79
2020/12/01 02:50:15;;;;;;;9.15;7.65;;;9.60;99.90;;;;;;5093849;28;20197;-79
2020/12/01 02:52:42;;;;;;;8.75;6.97;;;9.70;99.90;;;;;;5093796;28;20190;-79
2020/12/01 02:55:08;;;;;;;8.48;7.18;;;9.60;99.90;;;;;;5092997;28;20210;-79
2020/12/01 02:57:34;;;;;;;9.05;7.88;;;9.50;99.90;;;;;;5093740;28;20197;-79
2020/12/01 03:00:01;;;;;;;7.60;6.82;;;9.50;99.90;;;;;;5093673;28;20193;-79
2020/12/01 03:02:28;;;;;;;8.65;7.03;;;9.50;99.90;;;;;;5093694;28;20200;-79
2020/12/01 03:04:54;;;;;;;8.90;7.75;;;9.50;99.90;;;;;;5093494;28;20193;-78
2020/12/01 03:07:20;;;;;;;7.60;6.72;;;9.60;99.90;;;;;;5093627;28;20190;-78
2020/12/01 03:09:47;;;;;;;7.60;6.80;;;9.60;99.90;;;;;;5093585;28;20197;-79
2020/12/01 03:12:13;;;;;;;10.57;7.28;;;9.60;99.90;;;;;;5093652;28;20552;-79
2020/12/01 03:14:39;;;;;;;9.10;7.25;;;9.60;99.90;;;;;;5093136;28;20190;-80
2020/12/01 03:17:06;;;;;;;6.47;5.88;;;9.60;99.90;;;;;;5093388;28;20228;-79
2020/12/01 03:19:33;;;;;;;8.45;7.65;;;9.60;99.90;;;;;;5093538;28;20652;-79
2020/12/01 03:21:59;;;;;;;7.22;6.50;;;9.60;99.90;;;;;;5093223;28;20236;-79
2020/12/01 03:24:25;;;;;;;13.05;7.30;;;9.70;99.90;;;;;;5093303;28;20221;-78
2020/12/01 03:26:51;;;;;;;7.90;6.90;;;9.70;99.90;;;;;;5093314;28;20204;-79
2020/12/01 03:29:18;;;;;;;8.18;6.93;;;9.70;99.90;;;;;;5093322;28;20551;-79
2020/12/01 03:31:44;;;;;;;8.65;6.93;;;9.70;99.90;;;;;;5093461;28;20547;-79
2020/12/01 03:34:11;;;;;;;7.50;6.80;;;9.70;99.90;;;;;;5093032;28;20193;-79
2020/12/01 03:36:38;;;;;;;9.45;7.90;;;9.80;99.90;;;;;;5093449;28;20190;-79
2020/12/01 03:39:05;;;;;;;8.95;7.50;;;9.80;99.90;;;;;;5093235;28;20197;-79
2020/12/01 03:41:31;;;;;;;9.98;7.25;;;9.90;99.90;;;;;;5093067;28;20248;-79
2020/12/01 03:43:57;;;;;;;8.60;7.18;;;9.80;99.90;;;;;;5093201;28;20668;-79
2020/12/01 03:46:24;;;;;;;9.00;7.93;;;9.80;99.90;;;;;;5093225;28;20197;-79
2020/12/01 03:48:50;;;;;;;8.73;7.70;;;9.80;99.90;;;;;;5093238;28;20194;-80
2020/12/01 03:51:16;;;;;;;9.13;8.13;;;9.80;99.90;;;;;;5092998;28;20196;-78
2020/12/01 03:53:43;;;;;;;13.05;8.68;;;9.90;99.90;;;;;;5092786;28;20194;-79
2020/12/01 03:56:10;;;;;;;10.20;8.25;;;9.90;99.90;;;;;;5096619;28;20210;-79
2020/12/01 03:58:36;;;;;;;9.98;7.80;;;10.00;99.90;;;;;;5097173;28;20545;-79
2020/12/01 04:01:02;;;;;;;9.77;8.55;;;10.00;99.90;;;;;;5097033;28;20225;-79
2020/12/01 04:03:28;;;;;;;8.23;7.35;;;10.00;99.90;;;;;;5097154;28;20204;-79
2020/12/01 04:05:55;;;;;;;13.57;10.40;;;10.00;99.90;;;;;;5096894;28;20189;-78
2020/12/01 04:08:21;;;;;;;9.68;7.68;;;10.00;99.90;;;;;;5096969;28;20200;-78
2020/12/01 04:10:48;;;;;;;10.85;9.75;;;10.00;99.90;;;;;;5096991;28;20204;-79
2020/12/01 04:13:14;;;;;;;9.77;8.65;;;10.00;99.90;;;;;;5096633;28;20197;-78
2020/12/01 04:15:41;;;;;;;11.18;8.68;;;10.00;99.90;;;;;;5096800;28;20190;-79
2020/12/01 04:18:07;;;;;;;11.02;9.63;;;10.00;99.90;;;;;;5082213;28;20222;-79
2020/12/01 04:20:33;;;;;;;12.88;9.57;;;10.00;99.90;;;;;;5074508;28;20576;-79
2020/12/01 04:22:59;;;;;;;11.95;10.00;;;10.00;99.90;;;;;;5075695;28;20194;-79
2020/12/01 04:25:26;;;;;;;12.77;9.85;;;10.00;99.90;;;;;;5076133;28;20225;-79
2020/12/01 04:27:54;;;;;;;11.02;9.88;;;10.00;99.90;;;;;;5076300;28;20228;-79
2020/12/01 04:30:23;;;;;;;12.52;10.45;;;10.10;99.90;;;;;;5076242;28;20567;-79
2020/12/01 04:32:49;;;;;;;11.35;9.95;;;10.00;99.90;;;;;;5076415;28;20534;-79
2020/12/01 04:35:16;;;;;;;11.35;9.40;;;10.10;99.90;;;;;;5076064;28;20205;-79
2020/12/01 04:37:42;;;;;;;10.57;9.07;;;10.00;99.90;;;;;;5076172;28;20198;-79
2020/12/01 04:40:10;;;;;;;12.80;10.02;;;10.00;99.90;;;;;;5076084;28;20190;-79
2020/12/01 04:42:45;;;;;;;14.00;9.00;;;10.00;99.90;;;;;;5076124;28;20212;-79
2020/12/01 04:45:13;;;;;;;12.98;10.32;;;10.10;99.90;;;;;;5076033;28;20290;-79
2020/12/01 04:47:52;;;;;;;10.65;9.55;;;10.10;99.90;;;;;;5075968;28;20194;-79
2020/12/01 04:50:25;;;;;;;11.35;9.05;;;10.10;99.90;;;;;;5075813;28;20204;-79
2020/12/01 04:53:14;;;;;;;13.40;10.18;;;10.10;99.90;;;;;;5076013;28;20198;-79
2020/12/01 04:56:09;;;;;;;13.00;9.88;;;10.10;99.90;;;;;;5075590;28;20214;-79
2020/12/01 04:59:32;;;;;;;10.75;8.15;;;10.10;99.90;;;;;;5075874;28;20198;-79
2020/12/01 05:02:26;;;;;;;11.00;9.00;;;10.10;99.90;;;;;;4999110;28;20224;-79
2020/12/01 05:05:07;;;;;;;10.35;9.35;;;10.10;99.90;;;;;;5013981;28;20193;-79
2020/12/01 05:07:46;;;;;;;9.23;8.23;;;10.10;99.90;;;;;;5068165;28;20612;-80
2020/12/01 05:10:14;;;;;;;8.95;8.07;;;10.10;99.90;;;;;;5075406;28;20277;-79
2020/12/01 05:12:44;;;;;;;12.13;10.40;;;10.20;99.90;;;;;;5075528;28;20191;-79
2020/12/01 05:15:16;;;;;;;9.35;7.93;;;10.20;99.90;;;;;;5075318;28;20285;-78
2020/12/01 05:18:03;;;;;;;9.40;8.50;;;10.20;99.90;;;;;;5075155;28;20596;-79
2020/12/01 05:20:30;;;;;;;13.68;10.15;;;10.20;99.90;;;;;;5075193;28;20224;-79
2020/12/01 05:23:00;;;;;;;10.43;9.18;;;10.20;99.90;;;;;;5075299;28;20194;-80
2020/12/01 05:25:29;;;;;;;10.63;8.93;;;10.20;99.90;;;;;;5075233;28;20245;-79
2020/12/01 05:28:10;;;;;;;14.13;11.20;;;10.30;99.90;;;;;;5075199;28;20197;-79
2020/12/01 05:30:36;;;;;;;16.77;10.27;;;10.20;99.90;;;;;;5077559;28;20197;-79
2020/12/01 05:33:19;;;;;;;13.48;10.38;;;10.30;99.90;;;;;;5084548;28;20719;-79
2020/12/01 05:35:58;;;;;;;12.40;10.07;;;10.20;99.90;;;;;;5074509;28;20186;-79
2020/12/01 05:38:24;;;;;;;11.63;9.63;;;10.20;99.90;;;;;;5075112;28;20196;-79
2020/12/01 05:40:53;;;;;;;14.90;11.52;;;10.30;99.90;;;;;;5074877;28;20233;-78
2020/12/01 05:43:24;;;;;;;14.00;10.30;;;10.30;99.90;;;;;;5074557;28;20194;-78
2020/12/01 05:45:50;;;;;;;13.30;9.95;;;10.40;99.90;;;;;;5074285;28;20190;-79
2020/12/01 05:48:39;;;;;;;12.85;10.93;;;10.40;99.90;;;;;;5074127;28;20198;-79
2020/12/01 05:51:11;;;;;;;16.00;12.95;;;10.40;99.90;;;;;;5074361;28;20186;-79
2020/12/01 05:53:37;;;;;;;19.05;12.30;;;10.30;99.90;;;;;;5074546;28;20200;-79
2020/12/01 05:56:15;;;;;;;14.18;11.27;;;10.40;99.90;;;;;;5081623;28;20214;-79
2020/12/01 05:58:44;;;;;;;14.30;11.50;;;10.40;99.90;;;;;;5074606;28;20255;-79
2020/12/01 06:01:11;;;;;;;18.20;11.63;;;10.40;99.90;;;;;;5074372;28;20242;-78
2020/12/01 06:04:10;;;;;;;15.85;12.88;;;10.40;99.90;;;;;;5073851;28;20201;-79
2020/12/01 06:07:00;;;;;;;15.13;11.85;;;10.40;99.90;;;;;;5073053;28;20278;-79
2020/12/01 06:10:04;;;;;;;14.38;11.50;;;10.40;99.90;;;;;;5073965;28;20201;-79
2020/12/01 06:13:04;;;;;;;16.00;12.18;;;10.40;99.90;;;;;;5074241;28;20206;-79
2020/12/01 06:15:32;;;;;;;17.55;11.77;;;10.40;99.90;;;;;;5048394;28;20212;-79
2020/12/01 06:18:05;;;;;;;17.73;12.73;;;10.40;99.90;;;;;;5073161;28;20237;-79
2020/12/01 06:20:37;;;;;;;15.82;12.23;;;10.40;99.90;;;;;;5074319;28;20245;-79
2020/12/01 06:23:46;;;;;;;17.85;12.85;;;10.50;99.90;;;;;;5074151;28;20197;-78
2020/12/01 06:26:47;;;;;;;18.35;11.95;;;10.50;99.90;;;;;;5066592;28;20201;-79
2020/12/01 06:30:07;;;;;;;19.40;14.43;;;10.50;99.90;;;;;;5074090;28;20198;-79
2020/12/01 06:33:03;;;;;;;25.15;14.32;;;10.50;99.90;;;;;;5037811;28;20201;-79
2020/12/01 06:36:15;;;;;;;18.65;13.10;;;10.60;99.90;;;;;;5073767;28;20198;-79
2020/12/01 06:38:53;;;;;;;17.30;11.82;;;10.60;99.90;;;;;;5054672;28;20202;-79
2020/12/01 06:41:22;;;;;;;19.52;14.02;;;10.60;99.90;;;;;;5073813;28;20226;-79
2020/12/01 06:43:51;;;;;;;23.20;12.45;;;10.70;99.90;;;;;;5073727;28;20194;-78
2020/12/01 06:46:43;;;;;;;21.15;14.55;;;10.70;99.90;;;;;;5073448;28;20578;-79
2020/12/01 06:49:12;;;;;;;29.42;13.80;;;10.70;99.90;;;;;;5073754;28;20194;-78
2020/12/01 06:51:39;;;;;;;15.85;12.50;;;10.80;99.90;;;;;;5073464;28;20191;-78
2020/12/01 06:54:08;;;;;;;20.90;13.13;;;10.80;99.90;;;;;;5073250;28;20220;-78
2020/12/01 06:56:35;;;;;;;20.98;15.13;;;10.80;99.90;;;;;;5073231;28;20190;-79
2020/12/01 06:59:07;;;;;;;23.77;14.43;;;10.80;99.90;;;;;;5072880;28;20198;-79
2020/12/01 07:01:34;;;;;;;21.80;13.57;;;10.80;99.90;;;;;;5073230;28;20221;-79
2020/12/01 07:04:20;;;;;;;25.27;15.48;;;10.80;99.90;;;;;;5073457;28;20285;-78
2020/12/01 07:06:49;;;;;;;18.85;13.38;;;10.90;99.90;;;;;;5073475;28;20406;-78
2020/12/01 07:09:20;;;;;;;21.02;14.05;;;10.90;99.90;;;;;;5073635;28;20659;-78
2020/12/01 07:11:57;;;;;;;24.58;16.52;;;10.90;99.90;;;;;;5073566;28;20194;-78
2020/12/01 07:14:27;;;;;;;24.33;15.35;;;10.90;99.90;;;;;;5073172;28;20194;-78
2020/12/01 07:16:53;;;;;;;23.75;12.80;;;10.90;99.90;;;;;;5072967;28;20226;-79
2020/12/01 07:19:22;;;;;;;32.35;16.20;;;10.90;99.90;;;;;;5073213;28;20200;-78
2020/12/01 07:22:02;;;;;;;19.10;14.60;;;10.90;99.90;;;;;;5073098;28;20233;-79
2020/12/01 07:24:43;;;;;;;28.40;16.38;;;10.90;99.90;;;;;;5073097;28;20221;-78
2020/12/01 07:27:14;;;;;;;23.73;15.65;;;10.90;99.90;;;;;;5073198;28;20194;-78
2020/12/01 07:30:00;;;;;;;25.83;15.82;;;10.90;99.90;;;;;;5072957;28;20204;-79
2020/12/01 07:32:30;;;;;;;27.27;16.13;;;11.00;99.90;;;;;;5073215;28;20194;-78
2020/12/01 07:35:07;;;;;;;24.67;15.05;;;11.00;99.90;;;;;;5072995;28;20197;-79
2020/12/01 07:37:54;;;;;;;27.42;14.77;;;11.00;99.90;;;;;;5073033;28;20197;-79
2020/12/01 07:40:26;;;;;;;21.65;14.90;;;10.90;99.90;;;;;;5072942;28;20217;-79
2020/12/01 07:43:01;;;;;;;27.83;16.15;;;10.90;99.90;;;;;;5072960;28;20201;-79
2020/12/01 07:45:28;;;;;;;27.98;16.77;;;10.90;99.90;;;;;;5073261;28;20193;-79
2020/12/01 07:47:57;;;;;;;29.25;18.10;;;10.90;99.90;;;;;;5073139;28;20217;-79
2020/12/01 07:50:23;;;;;;;27.05;16.60;;;11.00;99.90;;;;;;5072843;28;20194;-79
2020/12/01 07:52:57;;;;;;;30.83;15.90;;;11.00;99.90;;;;;;5072844;28;20194;-77
2020/12/01 07:55:31;;;;;;;29.70;17.80;;;11.00;99.90;;;;;;5075805;28;20274;-80
2020/12/01 07:57:59;;;;;;;25.65;17.52;;;11.00;99.90;;;;;;5072043;28;20204;-83
2020/12/01 08:00:27;;;;;;;33.72;20.25;;;11.10;99.90;;;;;;5071649;28;20209;-79
2020/12/01 08:03:09;;;;;;;34.15;23.23;;;11.10;99.90;;;;;;5072206;28;20221;-79
2020/12/01 08:05:35;;;;;;;38.10;25.10;;;11.10;99.90;;;;;;5072270;28;20194;-79
2020/12/01 08:08:02;;;;;;;28.38;17.48;;;11.10;99.90;;;;;;5072274;28;20199;-80
2020/12/01 08:10:29;;;;;;;37.97;25.05;;;11.10;99.90;;;;;;5072331;28;20194;-79
2020/12/01 08:13:01;;;;;;;29.63;20.20;;;11.10;99.90;;;;;;5072098;28;20208;-79
2020/12/01 08:15:28;;;;;;;31.30;18.75;;;11.20;99.90;;;;;;5072297;28;20205;-79
2020/12/01 08:17:55;;;;;;;28.77;18.25;;;11.10;99.90;;;;;;5071871;28;20225;-79
2020/12/01 08:20:24;;;;;;;26.00;18.20;;;11.20;99.90;;;;;;5072045;28;20197;-80
2020/12/01 08:22:59;;;;;;;30.23;17.50;;;11.20;99.90;;;;;;5072276;28;20208;-79
2020/12/01 08:25:29;;;;;;;30.90;20.15;;;11.20;99.90;;;;;;5072091;28;20228;-79
2020/12/01 08:28:05;;;;;;;30.45;17.98;;;11.20;99.90;;;;;;5072039;28;20195;-82
2020/12/01 08:30:44;;;;;;;34.72;20.05;;;11.30;99.90;;;;;;5072180;28;20205;-82
2020/12/01 08:33:20;;;;;;;30.13;18.08;;;11.30;99.90;;;;;;5072141;28;20198;-80
2020/12/01 08:35:55;;;;;;;26.10;17.90;;;11.30;99.90;;;;;;5072017;28;20201;-80
2020/12/01 08:38:29;;;;;;;32.25;18.30;;;11.40;99.90;;;;;;5071964;28;20193;-79
2020/12/01 08:41:03;;;;;;;25.13;16.02;;;11.40;99.90;;;;;;5071851;28;20261;-80
2020/12/01 08:43:37;;;;;;;31.42;18.38;;;11.40;99.90;;;;;;5075363;28;20198;-80
2020/12/01 08:46:10;;;;;;;22.95;15.65;;;11.40;99.90;;;;;;5075540;28;20196;-79
2020/12/01 08:48:45;;;;;;;28.65;17.75;;;11.40;99.90;;;;;;5075259;28;20581;-80
2020/12/01 08:51:26;;;;;;;25.58;16.58;;;11.40;99.90;;;;;;5075317;28;20206;-80
2020/12/01 08:53:59;;;;;;;24.20;16.52;;;11.40;99.90;;;;;;5075073;28;20222;-79
2020/12/01 08:56:39;;;;;;;27.48;16.70;;;11.40;99.90;;;;;;5075045;28;20202;-79
2020/12/01 08:59:09;;;;;;;27.23;16.70;;;11.40;99.90;;;;;;5075297;28;20194;-79
2020/12/01 09:01:41;;;;;;;29.88;17.05;;;11.40;99.90;;;;;;5075117;28;20214;-79
2020/12/01 09:04:19;;;;;;;23.65;16.00;;;11.40;99.90;;;;;;5074848;28;20661;-80
2020/12/01 09:06:45;;;;;;;24.98;15.70;;;11.40;99.90;;;;;;5075100;28;20200;-79
2020/12/01 09:09:20;;;;;;;27.20;16.30;;;11.30;99.90;;;;;;5074986;28;20608;-79
2020/12/01 09:14:46;;;;;;;23.90;15.13;;;11.30;99.90;;;;;;5074889;28;20198;-79
2020/12/01 09:17:24;;;;;;;24.63;16.00;;;11.30;99.90;;;;;;5074730;28;20758;-80
2020/12/01 09:20:01;;;;;;;23.42;16.48;;;11.30;99.90;;;;;;5074773;28;20248;-79
2020/12/01 09:22:30;;;;;;;30.23;17.50;;;11.30;99.90;;;;;;5074701;28;20271;-80
2020/12/01 09:25:17;;;;;;;27.10;17.60;;;11.30;99.90;;;;;;5074581;28;20218;-80
2020/12/01 09:27:44;;;;;;;28.15;16.20;;;11.30;99.90;;;;;;5074474;28;20202;-80
2020/12/01 09:30:25;;;;;;;26.25;15.40;;;11.30;99.90;;;;;;5074644;28;20198;-80
2020/12/01 09:32:53;;;;;;;27.10;16.60;;;11.30;99.90;;;;;;5074568;28;20194;-80
2020/12/01 09:35:19;;;;;;;27.90;17.58;;;11.30;99.90;;;;;;5074355;28;20198;-80
2020/12/01 09:37:46;;;;;;;28.27;17.58;;;11.30;99.90;;;;;;5074460;28;20216;-80
2020/12/01 09:40:12;;;;;;;29.95;17.27;;;11.30;99.90;;;;;;5074212;28;20200;-79
2020/12/01 09:42:40;;;;;;;24.25;16.40;;;11.30;99.90;;;;;;5074200;28;20228;-80
2020/12/01 09:45:19;;;;;;;31.98;17.55;;;11.40;99.90;;;;;;5074239;28;20198;-80
2020/12/01 09:47:48;;;;;;;31.30;16.77;;;11.40;99.90;;;;;;5074148;28;20668;-79
2020/12/01 09:50:21;;;;;;;26.20;17.08;;;11.40;99.90;;;;;;5073844;28;20190;-79
2020/12/01 09:52:59;;;;;;;36.53;21.23;;;11.40;99.90;;;;;;5073787;28;20202;-79
2020/12/01 09:55:43;;;;;;;41.15;24.67;;;11.40;99.90;;;;;;5073731;28;20221;-80
2020/12/01 09:58:21;;;;;;;29.73;18.40;;;11.40;99.90;;;;;;5073830;28;20281;-80
2020/12/01 10:09:11;;;;;;;51.47;27.73;;;11.50;99.90;;;;;;5073803;28;20186;-80
2020/12/01 10:34:12;;;;;;;34.30;20.10;;;11.60;99.90;;;;;;5055701;28;20657;-79
2020/12/01 10:36:38;;;;;;;67.30;30.08;;;11.70;99.90;;;;;;5073305;28;20229;-79
2020/12/01 10:39:07;;;;;;;72.10;30.77;;;11.70;99.90;;;;;;5073491;28;20201;-79
2020/12/01 10:41:34;;;;;;;68.68;28.77;;;11.70;99.90;;;;;;5072992;28;20226;-79
2020/12/01 10:44:01;;;;;;;56.97;25.55;;;11.70;99.90;;;;;;5073078;28;20335;-80
2020/12/01 10:46:28;;;;;;;58.55;25.67;;;11.70;99.90;;;;;;5071666;28;20252;-80
2020/12/01 10:48:54;;;;;;;53.35;25.00;;;11.70;99.90;;;;;;5073101;28;20205;-80
2020/12/01 10:51:21;;;;;;;33.58;18.10;;;11.70;99.90;;;;;;5072813;28;20649;-79
2020/12/01 10:53:47;;;;;;;26.08;16.55;;;11.70;99.90;;;;;;5072597;28;20214;-79
2020/12/01 10:56:15;;;;;;;25.83;15.90;;;11.70;99.90;;;;;;5072873;28;20194;-81
2020/12/01 10:58:41;;;;;;;26.67;16.30;;;11.60;99.90;;;;;;5072702;28;20567;-79
2020/12/01 11:01:07;;;;;;;21.00;13.07;;;11.70;99.90;;;;;;5072909;28;20226;-79
2020/12/01 11:03:34;;;;;;;23.13;13.23;;;11.70;99.90;;;;;;5072445;28;20194;-79
2020/12/01 11:06:00;;;;;;;23.13;13.60;;;11.70;99.90;;;;;;5072358;28;20675;-82
2020/12/01 11:08:26;;;;;;;22.73;14.45;;;11.80;99.90;;;;;;5072798;28;20194;-80
2020/12/01 11:10:53;;;;;;;16.58;12.55;;;11.80;99.90;;;;;;5072705;28;20198;-82
2020/12/01 11:13:20;;;;;;;11.57;9.80;;;11.80;99.90;;;;;;5072681;28;20201;-81
2020/12/01 11:15:46;;;;;;;18.67;10.68;;;11.80;99.90;;;;;;5072494;28;21112;-79
2020/12/01 11:18:12;;;;;;;13.95;10.82;;;11.80;99.90;;;;;;5072246;28;20248;-79
2020/12/01 11:20:39;;;;;;;9.15;6.68;;;11.80;99.90;;;;;;5072758;28;20197;-79
2020/12/01 11:23:05;;;;;;;5.80;5.15;;;11.80;99.90;;;;;;5072347;28;20582;-79
2020/12/01 11:25:31;;;;;;;7.10;6.38;;;11.70;99.90;;;;;;5072497;28;20210;-80
2020/12/01 11:27:57;;;;;;;8.55;6.80;;;11.70;99.90;;;;;;5072466;28;20197;-80
2020/12/01 11:30:26;;;;;;;9.82;7.43;;;11.80;99.90;;;;;;5072339;28;20201;-80
2020/12/01 11:32:52;;;;;;;18.33;11.20;;;11.80;99.90;;;;;;5072358;28;20213;-80
2020/12/01 11:35:20;;;;;;;11.85;9.18;;;11.80;99.90;;;;;;5072612;28;20202;-79
2020/12/01 11:37:47;;;;;;;16.38;11.77;;;11.90;99.90;;;;;;5072384;28;20202;-79
2020/12/01 11:40:13;;;;;;;32.83;16.92;;;11.80;99.90;;;;;;5072363;28;20288;-80
2020/12/01 11:42:41;;;;;;;28.73;14.20;;;11.90;99.90;;;;;;5072303;28;20222;-79
2020/12/01 11:45:09;;;;;;;20.10;12.30;;;11.90;99.90;;;;;;5072316;28;20202;-80
2020/12/01 11:47:36;;;;;;;21.80;12.68;;;11.90;99.90;;;;;;5072342;28;20285;-79
2020/12/01 11:50:04;;;;;;;20.33;13.20;;;11.90;99.90;;;;;;5071965;28;20204;-79
2020/12/01 11:52:30;;;;;;;27.33;15.90;;;11.90;99.90;;;;;;5072150;28;20190;-80
2020/12/01 11:54:57;;;;;;;11.48;8.45;;;11.90;99.90;;;;;;5072125;28;20211;-79
2020/12/01 11:57:23;;;;;;;16.05;9.73;;;11.90;99.90;;;;;;5071674;28;20203;-80
2020/12/01 11:59:49;;;;;;;10.27;8.45;;;11.90;99.90;;;;;;5071843;28;20205;-80
2020/12/01 12:02:16;;;;;;;20.13;12.85;;;11.90;99.90;;;;;;5072023;28;20272;-80
2020/12/01 12:04:43;;;;;;;13.90;10.15;;;11.90;99.90;;;;;;5072191;28;20194;-80
2020/12/01 12:07:09;;;;;;;12.80;9.90;;;11.90;99.90;;;;;;5072208;28;20205;-79
2020/12/01 12:09:35;;;;;;;12.98;10.52;;;11.90;99.90;;;;;;5071835;28;20198;-79
2020/12/01 12:12:01;;;;;;;11.40;8.07;;;11.90;99.90;;;;;;5071642;28;20556;-80
2020/12/01 12:14:28;;;;;;;7.43;6.70;;;11.90;99.90;;;;;;5072080;28;20194;-80
2020/12/01 12:16:54;;;;;;;6.50;5.80;;;11.90;99.90;;;;;;5074723;28;20222;-80
2020/12/01 12:19:20;;;;;;;8.02;7.22;;;11.90;99.90;;;;;;5075628;28;20208;-80
2020/12/01 12:21:47;;;;;;;6.35;5.75;;;12.00;99.90;;;;;;5075560;28;20565;-80
2020/12/01 12:24:14;;;;;;;7.15;6.45;;;12.00;99.90;;;;;;5075680;28;20211;-79
2020/12/01 12:26:40;;;;;;;13.45;5.93;;;12.00;99.90;;;;;;5075815;28;20200;-80
2020/12/01 12:29:07;;;;;;;7.50;6.32;;;11.90;99.90;;;;;;5075509;28;20195;-80
2020/12/01 12:31:33;;;;;;;7.15;6.40;;;11.90;99.90;;;;;;5075448;28;20194;-80
2020/12/01 12:33:59;;;;;;;11.70;7.90;;;12.00;99.90;;;;;;5075151;28;20213;-80
2020/12/01 12:36:25;;;;;;;8.77;7.22;;;12.00;99.90;;;;;;5075704;28;20190;-80
2020/12/01 12:38:55;;;;;;;7.75;6.07;;;12.00;99.90;;;;;;5075411;28;20190;-80
2020/12/01 12:41:21;;;;;;;9.27;7.28;;;12.10;99.90;;;;;;5075208;28;20230;-80
2020/12/01 12:43:47;;;;;;;8.90;7.70;;;12.10;99.90;;;;;;5075276;28;20198;-80
2020/12/01 12:46:13;;;;;;;8.57;7.68;;;12.10;99.90;;;;;;5075486;28;20198;-79
2020/12/01 12:48:40;;;;;;;9.80;7.88;;;12.10;99.90;;;;;;5075180;28;20198;-80
2020/12/01 12:51:06;;;;;;;8.52;7.63;;;12.10;99.90;;;;;;5075130;28;20194;-80
2020/12/01 12:53:32;;;;;;;7.05;6.20;;;12.10;99.90;;;;;;5074802;28;20221;-80
2020/12/01 12:56:00;;;;;;;7.75;6.95;;;12.10;99.90;;;;;;5075248;28;20661;-80
2020/12/01 12:58:26;;;;;;;7.43;6.70;;;12.00;99.90;;;;;;5075081;28;20209;-80
2020/12/01 13:00:53;;;;;;;7.78;7.03;;;12.00;99.90;;;;;;5075077;28;20202;-79
2020/12/01 13:03:19;;;;;;;10.45;7.55;;;12.10;99.90;;;;;;5074814;28;20590;-81
2020/12/01 13:05:45;;;;;;;11.05;7.60;;;12.10;99.90;;;;;;5074998;28;20202;-80
2020/12/01 13:08:11;;;;;;;9.38;7.93;;;12.20;99.90;;;;;;5074906;28;20558;-80
2020/12/01 13:10:38;;;;;;;11.43;7.53;;;12.20;99.90;;;;;;5074597;28;20198;-80
2020/12/01 13:13:05;;;;;;;7.10;6.40;;;12.10;99.90;;;;;;5074918;28;20198;-79
2020/12/01 13:15:31;;;;;;;7.60;6.40;;;12.20;99.90;;;;;;5074852;28;20190;-79
2020/12/01 13:17:57;;;;;;;7.50;6.13;;;12.10;99.90;;;;;;5074689;28;20233;-79
2020/12/01 13:20:26;;;;;;;6.78;6.07;;;12.20;99.90;;;;;;5074853;28;20190;-80
2020/12/01 13:22:52;;;;;;;7.10;6.40;;;12.20;99.90;;;;;;5074316;28;20230;-80
2020/12/01 13:25:19;;;;;;;6.82;6.15;;;12.10;99.90;;;;;;5074633;28;20198;-81
2020/12/01 13:27:45;;;;;;;6.18;5.60;;;12.10;99.90;;;;;;5074182;28;20201;-80
2020/12/01 13:30:14;;;;;;;6.25;5.63;;;12.10;99.90;;;;;;5074319;28;20214;-79